sensor_id;sensor_type;location;lat;lon;timestamp;P1;durP1;ratioP1;P2;durP2;ratioP2
8574;SDS011;4325;42.520;27.448;2023-02-28T00:00:50;8.37;;;6.60;;
8574;SDS011;4325;42.520;27.448;2023-02-28T00:03:17;9.83;;;6.53;;
8574;SDS011;4325;42.520;27.448;2023-02-28T00:05:44;8.87;;;6.63;;
8574;SDS011;4325;42.520;27.448;2023-02-28T00:08:11;14.00;;;7.70;;
8574;SDS011;4325;42.520;27.448;2023-02-28T00:10:39;11.57;;;7.30;;
8574;SDS011;4325;42.520;27.448;2023-02-28T00:13:06;12.17;;;7.17;;
8574;SDS011;4325;42.520;27.448;2023-02-28T00:15:33;11.13;;;7.10;;
8574;SDS011;4325;42.520;27.448;2023-02-28T00:18:00;13.60;;;7.23;;
8574;SDS011;4325;42.520;27.448;2023-02-28T00:20:28;10.07;;;6.90;;
8574;SDS011;4325;42.520;27.448;2023-02-28T00:22:55;9.57;;;6.57;;
8574;SDS011;4325;42.520;27.448;2023-02-28T00:25:23;10.97;;;7.70;;
8574;SDS011;4325;42.520;27.448;2023-02-28T00:27:52;9.70;;;5.87;;
8574;SDS011;4325;42.520;27.448;2023-02-28T00:30:19;9.50;;;6.20;;
8574;SDS011;4325;42.520;27.448;2023-02-28T00:32:47;12.87;;;6.73;;
8574;SDS011;4325;42.520;27.448;2023-02-28T00:35:14;14.47;;;6.37;;
8574;SDS011;4325;42.520;27.448;2023-02-28T00:37:41;14.23;;;6.57;;
8574;SDS011;4325;42.520;27.448;2023-02-28T00:40:09;6.60;;;5.70;;
8574;SDS011;4325;42.520;27.448;2023-02-28T00:42:37;8.80;;;6.70;;
8574;SDS011;4325;42.520;27.448;2023-02-28T00:45:06;11.03;;;6.20;;
8574;SDS011;4325;42.520;27.448;2023-02-28T00:47:34;10.03;;;7.07;;
8574;SDS011;4325;42.520;27.448;2023-02-28T00:50:01;10.13;;;6.97;;
8574;SDS011;4325;42.520;27.448;2023-02-28T00:52:29;8.37;;;6.87;;
8574;SDS011;4325;42.520;27.448;2023-02-28T00:54:56;9.80;;;6.90;;
8574;SDS011;4325;42.520;27.448;2023-02-28T00:57:22;10.37;;;7.43;;
8574;SDS011;4325;42.520;27.448;2023-02-28T00:59:49;11.83;;;7.77;;
8574;SDS011;4325;42.520;27.448;2023-02-28T01:02:21;9.57;;;7.13;;
8574;SDS011;4325;42.520;27.448;2023-02-28T01:04:48;13.40;;;8.00;;
8574;SDS011;4325;42.520;27.448;2023-02-28T01:07:15;8.50;;;7.03;;
8574;SDS011;4325;42.520;27.448;2023-02-28T01:09:42;9.73;;;7.70;;
8574;SDS011;4325;42.520;27.448;2023-02-28T01:12:09;13.57;;;8.27;;
8574;SDS011;4325;42.520;27.448;2023-02-28T01:14:36;11.17;;;7.67;;
8574;SDS011;4325;42.520;27.448;2023-02-28T01:17:03;13.03;;;8.03;;
8574;SDS011;4325;42.520;27.448;2023-02-28T01:19:31;11.37;;;8.23;;
8574;SDS011;4325;42.520;27.448;2023-02-28T01:22:00;13.87;;;8.10;;
8574;SDS011;4325;42.520;27.448;2023-02-28T01:24:28;11.80;;;8.53;;
8574;SDS011;4325;42.520;27.448;2023-02-28T01:26:55;11.20;;;8.10;;
8574;SDS011;4325;42.520;27.448;2023-02-28T01:29:21;10.53;;;8.87;;
8574;SDS011;4325;42.520;27.448;2023-02-28T01:31:48;14.83;;;9.33;;
8574;SDS011;4325;42.520;27.448;2023-02-28T01:34:15;11.37;;;8.60;;
8574;SDS011;4325;42.520;27.448;2023-02-28T01:36:45;15.23;;;8.73;;
8574;SDS011;4325;42.520;27.448;2023-02-28T01:39:12;9.70;;;8.03;;
8574;SDS011;4325;42.520;27.448;2023-02-28T01:41:39;10.90;;;8.17;;
8574;SDS011;4325;42.520;27.448;2023-02-28T01:44:07;14.83;;;8.43;;
8574;SDS011;4325;42.520;27.448;2023-02-28T01:46:54;10.60;;;8.40;;
8574;SDS011;4325;42.520;27.448;2023-02-28T01:49:20;15.03;;;8.33;;
8574;SDS011;4325;42.520;27.448;2023-02-28T01:51:49;13.63;;;8.67;;
8574;SDS011;4325;42.520;27.448;2023-02-28T01:54:20;14.27;;;9.07;;
8574;SDS011;4325;42.520;27.448;2023-02-28T01:56:51;11.63;;;9.33;;
8574;SDS011;4325;42.520;27.448;2023-02-28T01:59:24;12.83;;;9.80;;
8574;SDS011;4325;42.520;27.448;2023-02-28T02:01:56;13.83;;;10.13;;
8574;SDS011;4325;42.520;27.448;2023-02-28T02:04:23;16.73;;;10.77;;
8574;SDS011;4325;42.520;27.448;2023-02-28T02:06:53;16.17;;;11.37;;
8574;SDS011;4325;42.520;27.448;2023-02-28T02:09:21;14.87;;;11.90;;
8574;SDS011;4325;42.520;27.448;2023-02-28T02:11:48;14.03;;;11.67;;
8574;SDS011;4325;42.520;27.448;2023-02-28T02:17:14;14.07;;;10.97;;
8574;SDS011;4325;42.520;27.448;2023-02-28T02:23:04;14.17;;;10.57;;
8574;SDS011;4325;42.520;27.448;2023-02-28T02:25:45;16.80;;;11.83;;
8574;SDS011;4325;42.520;27.448;2023-02-28T02:28:28;13.70;;;11.07;;
8574;SDS011;4325;42.520;27.448;2023-02-28T02:31:29;15.57;;;11.50;;
8574;SDS011;4325;42.520;27.448;2023-02-28T02:36:58;19.83;;;12.90;;
8574;SDS011;4325;42.520;27.448;2023-02-28T02:39:35;18.20;;;11.73;;
8574;SDS011;4325;42.520;27.448;2023-02-28T02:42:09;16.53;;;12.33;;
8574;SDS011;4325;42.520;27.448;2023-02-28T02:44:42;18.07;;;12.70;;
8574;SDS011;4325;42.520;27.448;2023-02-28T02:47:13;13.87;;;11.47;;
8574;SDS011;4325;42.520;27.448;2023-02-28T02:49:46;13.77;;;11.00;;
8574;SDS011;4325;42.520;27.448;2023-02-28T02:52:18;15.00;;;12.10;;
8574;SDS011;4325;42.520;27.448;2023-02-28T02:54:48;14.07;;;10.03;;
8574;SDS011;4325;42.520;27.448;2023-02-28T02:57:29;12.90;;;11.07;;
8574;SDS011;4325;42.520;27.448;2023-02-28T03:00:00;12.40;;;10.50;;
8574;SDS011;4325;42.520;27.448;2023-02-28T03:02:30;15.10;;;11.17;;
8574;SDS011;4325;42.520;27.448;2023-02-28T03:05:01;15.97;;;10.97;;
8574;SDS011;4325;42.520;27.448;2023-02-28T03:07:31;18.43;;;11.57;;
8574;SDS011;4325;42.520;27.448;2023-02-28T03:09:57;17.80;;;11.80;;
8574;SDS011;4325;42.520;27.448;2023-02-28T03:12:27;15.33;;;11.97;;
8574;SDS011;4325;42.520;27.448;2023-02-28T03:15:05;14.13;;;11.37;;
8574;SDS011;4325;42.520;27.448;2023-02-28T03:17:44;15.40;;;11.87;;
8574;SDS011;4325;42.520;27.448;2023-02-28T03:20:26;14.13;;;11.90;;
8574;SDS011;4325;42.520;27.448;2023-02-28T03:23:03;13.60;;;10.57;;
8574;SDS011;4325;42.520;27.448;2023-02-28T03:25:41;15.77;;;10.53;;
8574;SDS011;4325;42.520;27.448;2023-02-28T03:28:19;14.47;;;10.63;;
8574;SDS011;4325;42.520;27.448;2023-02-28T03:30:55;13.40;;;10.10;;
8574;SDS011;4325;42.520;27.448;2023-02-28T03:33:26;14.87;;;10.57;;
8574;SDS011;4325;42.520;27.448;2023-02-28T03:35:58;13.07;;;10.97;;
8574;SDS011;4325;42.520;27.448;2023-02-28T03:38:31;17.27;;;10.90;;
8574;SDS011;4325;42.520;27.448;2023-02-28T03:41:04;13.30;;;10.33;;
8574;SDS011;4325;42.520;27.448;2023-02-28T03:43:36;12.53;;;10.27;;
8574;SDS011;4325;42.520;27.448;2023-02-28T03:46:09;15.40;;;12.47;;
8574;SDS011;4325;42.520;27.448;2023-02-28T03:48:40;14.83;;;12.00;;
8574;SDS011;4325;42.520;27.448;2023-02-28T03:51:12;15.30;;;11.73;;
8574;SDS011;4325;42.520;27.448;2023-02-28T03:53:44;18.30;;;11.07;;
8574;SDS011;4325;42.520;27.448;2023-02-28T03:56:17;14.17;;;11.43;;
8574;SDS011;4325;42.520;27.448;2023-02-28T03:58:47;17.27;;;11.67;;
8574;SDS011;4325;42.520;27.448;2023-02-28T04:01:19;14.03;;;11.30;;
8574;SDS011;4325;42.520;27.448;2023-02-28T04:03:49;16.90;;;11.70;;
8574;SDS011;4325;42.520;27.448;2023-02-28T04:06:18;16.07;;;11.40;;
8574;SDS011;4325;42.520;27.448;2023-02-28T04:08:47;14.97;;;11.10;;
8574;SDS011;4325;42.520;27.448;2023-02-28T04:11:19;15.60;;;11.60;;
8574;SDS011;4325;42.520;27.448;2023-02-28T04:13:49;16.97;;;10.97;;
8574;SDS011;4325;42.520;27.448;2023-02-28T04:16:16;15.53;;;12.57;;
8574;SDS011;4325;42.520;27.448;2023-02-28T04:18:43;14.17;;;11.83;;
8574;SDS011;4325;42.520;27.448;2023-02-28T04:21:10;12.80;;;10.10;;
8574;SDS011;4325;42.520;27.448;2023-02-28T04:23:39;11.33;;;9.77;;
8574;SDS011;4325;42.520;27.448;2023-02-28T04:26:06;11.53;;;9.77;;
8574;SDS011;4325;42.520;27.448;2023-02-28T04:28:33;12.03;;;9.93;;
8574;SDS011;4325;42.520;27.448;2023-02-28T04:31:02;13.97;;;10.47;;
8574;SDS011;4325;42.520;27.448;2023-02-28T04:33:30;11.00;;;9.10;;
8574;SDS011;4325;42.520;27.448;2023-02-28T04:35:59;14.30;;;10.20;;
8574;SDS011;4325;42.520;27.448;2023-02-28T04:38:27;12.63;;;9.17;;
8574;SDS011;4325;42.520;27.448;2023-02-28T04:40:58;10.53;;;8.80;;
8574;SDS011;4325;42.520;27.448;2023-02-28T04:43:25;12.70;;;9.97;;
8574;SDS011;4325;42.520;27.448;2023-02-28T04:45:53;10.90;;;9.57;;
8574;SDS011;4325;42.520;27.448;2023-02-28T04:48:22;11.73;;;9.77;;
8574;SDS011;4325;42.520;27.448;2023-02-28T04:50:49;12.97;;;9.63;;
8574;SDS011;4325;42.520;27.448;2023-02-28T04:53:16;11.67;;;9.20;;
8574;SDS011;4325;42.520;27.448;2023-02-28T04:55:43;13.57;;;9.53;;
8574;SDS011;4325;42.520;27.448;2023-02-28T04:58:12;11.60;;;9.97;;
8574;SDS011;4325;42.520;27.448;2023-02-28T05:00:39;12.23;;;10.13;;
8574;SDS011;4325;42.520;27.448;2023-02-28T05:03:06;14.23;;;10.10;;
8574;SDS011;4325;42.520;27.448;2023-02-28T05:05:33;12.80;;;9.53;;
8574;SDS011;4325;42.520;27.448;2023-02-28T05:07:59;11.03;;;9.33;;
8574;SDS011;4325;42.520;27.448;2023-02-28T05:10:26;12.47;;;10.53;;
8574;SDS011;4325;42.520;27.448;2023-02-28T05:12:53;14.93;;;9.60;;
8574;SDS011;4325;42.520;27.448;2023-02-28T05:15:21;10.47;;;9.37;;
8574;SDS011;4325;42.520;27.448;2023-02-28T05:17:48;14.17;;;9.67;;
8574;SDS011;4325;42.520;27.448;2023-02-28T05:20:15;11.67;;;9.57;;
8574;SDS011;4325;42.520;27.448;2023-02-28T05:22:42;13.37;;;10.07;;
8574;SDS011;4325;42.520;27.448;2023-02-28T05:25:10;13.90;;;10.17;;
8574;SDS011;4325;42.520;27.448;2023-02-28T05:27:40;11.70;;;9.97;;
8574;SDS011;4325;42.520;27.448;2023-02-28T05:30:07;14.67;;;11.33;;
8574;SDS011;4325;42.520;27.448;2023-02-28T05:32:37;13.67;;;10.27;;
8574;SDS011;4325;42.520;27.448;2023-02-28T05:35:07;11.03;;;9.10;;
8574;SDS011;4325;42.520;27.448;2023-02-28T05:37:35;9.93;;;8.90;;
8574;SDS011;4325;42.520;27.448;2023-02-28T05:40:02;11.90;;;8.47;;
8574;SDS011;4325;42.520;27.448;2023-02-28T05:42:32;9.63;;;8.50;;
8574;SDS011;4325;42.520;27.448;2023-02-28T05:44:58;11.60;;;8.67;;
8574;SDS011;4325;42.520;27.448;2023-02-28T05:47:25;14.20;;;9.07;;
8574;SDS011;4325;42.520;27.448;2023-02-28T05:49:53;10.67;;;8.67;;
8574;SDS011;4325;42.520;27.448;2023-02-28T05:52:20;10.10;;;8.53;;
8574;SDS011;4325;42.520;27.448;2023-02-28T05:54:48;12.60;;;9.40;;
8574;SDS011;4325;42.520;27.448;2023-02-28T05:57:15;12.80;;;9.13;;
8574;SDS011;4325;42.520;27.448;2023-02-28T05:59:42;10.10;;;8.00;;
8574;SDS011;4325;42.520;27.448;2023-02-28T06:02:09;16.43;;;8.80;;
8574;SDS011;4325;42.520;27.448;2023-02-28T06:04:38;11.80;;;9.77;;
8574;SDS011;4325;42.520;27.448;2023-02-28T06:07:07;12.33;;;8.87;;
8574;SDS011;4325;42.520;27.448;2023-02-28T06:09:34;14.33;;;10.00;;
8574;SDS011;4325;42.520;27.448;2023-02-28T06:12:02;13.97;;;10.97;;
8574;SDS011;4325;42.520;27.448;2023-02-28T06:14:31;11.10;;;9.27;;
8574;SDS011;4325;42.520;27.448;2023-02-28T06:16:59;16.00;;;9.83;;
8574;SDS011;4325;42.520;27.448;2023-02-28T06:19:26;17.47;;;9.93;;
8574;SDS011;4325;42.520;27.448;2023-02-28T06:21:53;9.77;;;8.77;;
8574;SDS011;4325;42.520;27.448;2023-02-28T06:24:23;12.73;;;9.30;;
8574;SDS011;4325;42.520;27.448;2023-02-28T06:26:53;11.43;;;8.87;;
8574;SDS011;4325;42.520;27.448;2023-02-28T06:29:19;11.77;;;9.10;;
8574;SDS011;4325;42.520;27.448;2023-02-28T06:31:46;12.93;;;9.00;;
8574;SDS011;4325;42.520;27.448;2023-02-28T06:34:14;13.93;;;9.40;;
8574;SDS011;4325;42.520;27.448;2023-02-28T06:36:42;11.93;;;8.50;;
8574;SDS011;4325;42.520;27.448;2023-02-28T06:39:09;17.00;;;8.33;;
8574;SDS011;4325;42.520;27.448;2023-02-28T06:41:37;11.17;;;8.60;;
8574;SDS011;4325;42.520;27.448;2023-02-28T06:44:05;10.57;;;8.03;;
8574;SDS011;4325;42.520;27.448;2023-02-28T06:46:38;10.47;;;8.70;;
8574;SDS011;4325;42.520;27.448;2023-02-28T06:49:05;12.03;;;8.37;;
8574;SDS011;4325;42.520;27.448;2023-02-28T06:51:34;10.67;;;9.03;;
8574;SDS011;4325;42.520;27.448;2023-02-28T06:54:01;10.43;;;8.93;;
8574;SDS011;4325;42.520;27.448;2023-02-28T06:56:28;10.87;;;8.83;;
8574;SDS011;4325;42.520;27.448;2023-02-28T06:58:57;11.70;;;8.23;;
8574;SDS011;4325;42.520;27.448;2023-02-28T07:01:23;9.60;;;7.90;;
8574;SDS011;4325;42.520;27.448;2023-02-28T07:03:50;10.80;;;8.30;;
8574;SDS011;4325;42.520;27.448;2023-02-28T07:06:18;8.83;;;7.90;;
8574;SDS011;4325;42.520;27.448;2023-02-28T07:08:45;10.93;;;7.90;;
8574;SDS011;4325;42.520;27.448;2023-02-28T07:11:12;14.63;;;7.97;;
8574;SDS011;4325;42.520;27.448;2023-02-28T07:13:39;9.60;;;8.03;;
8574;SDS011;4325;42.520;27.448;2023-02-28T07:16:08;11.80;;;9.47;;
8574;SDS011;4325;42.520;27.448;2023-02-28T07:18:36;10.30;;;9.03;;
8574;SDS011;4325;42.520;27.448;2023-02-28T07:21:04;10.93;;;8.27;;
8574;SDS011;4325;42.520;27.448;2023-02-28T07:23:32;9.17;;;7.30;;
8574;SDS011;4325;42.520;27.448;2023-02-28T07:25:59;10.83;;;7.87;;
8574;SDS011;4325;42.520;27.448;2023-02-28T07:28:25;17.03;;;7.87;;
8574;SDS011;4325;42.520;27.448;2023-02-28T07:30:52;10.47;;;7.63;;
8574;SDS011;4325;42.520;27.448;2023-02-28T07:33:21;12.27;;;7.17;;
8574;SDS011;4325;42.520;27.448;2023-02-28T07:35:48;9.60;;;7.43;;
8574;SDS011;4325;42.520;27.448;2023-02-28T07:38:15;10.07;;;8.47;;
8574;SDS011;4325;42.520;27.448;2023-02-28T07:40:42;14.07;;;8.20;;
8574;SDS011;4325;42.520;27.448;2023-02-28T07:43:09;11.40;;;8.43;;
8574;SDS011;4325;42.520;27.448;2023-02-28T07:45:36;12.93;;;8.73;;
8574;SDS011;4325;42.520;27.448;2023-02-28T07:48:03;14.13;;;8.93;;
8574;SDS011;4325;42.520;27.448;2023-02-28T07:50:31;13.63;;;9.33;;
8574;SDS011;4325;42.520;27.448;2023-02-28T07:52:59;10.77;;;9.23;;
8574;SDS011;4325;42.520;27.448;2023-02-28T07:55:26;10.80;;;8.47;;
8574;SDS011;4325;42.520;27.448;2023-02-28T07:57:53;13.30;;;9.63;;
8574;SDS011;4325;42.520;27.448;2023-02-28T08:00:20;13.13;;;9.57;;
8574;SDS011;4325;42.520;27.448;2023-02-28T08:02:48;10.43;;;9.20;;
8574;SDS011;4325;42.520;27.448;2023-02-28T08:05:15;12.67;;;9.30;;
8574;SDS011;4325;42.520;27.448;2023-02-28T08:07:43;12.90;;;8.70;;
8574;SDS011;4325;42.520;27.448;2023-02-28T08:10:10;11.10;;;9.03;;
8574;SDS011;4325;42.520;27.448;2023-02-28T08:12:37;11.60;;;9.53;;
8574;SDS011;4325;42.520;27.448;2023-02-28T08:15:04;16.63;;;9.67;;
8574;SDS011;4325;42.520;27.448;2023-02-28T08:17:32;15.17;;;9.60;;
8574;SDS011;4325;42.520;27.448;2023-02-28T08:19:59;18.37;;;10.93;;
8574;SDS011;4325;42.520;27.448;2023-02-28T08:22:26;11.23;;;9.07;;
8574;SDS011;4325;42.520;27.448;2023-02-28T08:24:54;17.07;;;10.70;;
8574;SDS011;4325;42.520;27.448;2023-02-28T08:27:21;15.33;;;10.20;;
8574;SDS011;4325;42.520;27.448;2023-02-28T08:29:48;13.47;;;10.73;;
8574;SDS011;4325;42.520;27.448;2023-02-28T08:32:14;14.83;;;10.80;;
8574;SDS011;4325;42.520;27.448;2023-02-28T08:34:41;14.00;;;10.93;;
8574;SDS011;4325;42.520;27.448;2023-02-28T08:37:08;15.50;;;10.87;;
8574;SDS011;4325;42.520;27.448;2023-02-28T08:39:36;11.43;;;9.97;;
8574;SDS011;4325;42.520;27.448;2023-02-28T08:42:04;10.47;;;9.03;;
8574;SDS011;4325;42.520;27.448;2023-02-28T08:44:31;15.13;;;9.30;;
8574;SDS011;4325;42.520;27.448;2023-02-28T08:46:58;16.50;;;9.87;;
8574;SDS011;4325;42.520;27.448;2023-02-28T08:49:25;14.43;;;10.73;;
8574;SDS011;4325;42.520;27.448;2023-02-28T08:51:52;17.33;;;12.07;;
8574;SDS011;4325;42.520;27.448;2023-02-28T08:54:20;15.40;;;11.90;;
8574;SDS011;4325;42.520;27.448;2023-02-28T08:56:48;14.17;;;11.40;;
8574;SDS011;4325;42.520;27.448;2023-02-28T08:59:16;14.03;;;10.47;;
8574;SDS011;4325;42.520;27.448;2023-02-28T09:01:43;23.13;;;12.90;;
8574;SDS011;4325;42.520;27.448;2023-02-28T09:04:10;18.73;;;14.10;;
8574;SDS011;4325;42.520;27.448;2023-02-28T09:06:37;16.90;;;13.13;;
8574;SDS011;4325;42.520;27.448;2023-02-28T09:09:04;14.03;;;12.07;;
8574;SDS011;4325;42.520;27.448;2023-02-28T09:11:32;13.27;;;9.37;;
8574;SDS011;4325;42.520;27.448;2023-02-28T09:14:00;10.60;;;9.43;;
8574;SDS011;4325;42.520;27.448;2023-02-28T09:16:30;14.53;;;10.30;;
8574;SDS011;4325;42.520;27.448;2023-02-28T09:18:58;14.87;;;10.43;;
8574;SDS011;4325;42.520;27.448;2023-02-28T09:21:25;15.90;;;11.00;;
8574;SDS011;4325;42.520;27.448;2023-02-28T09:23:52;14.80;;;10.80;;
8574;SDS011;4325;42.520;27.448;2023-02-28T09:26:19;20.60;;;12.03;;
8574;SDS011;4325;42.520;27.448;2023-02-28T09:28:48;15.47;;;11.03;;
8574;SDS011;4325;42.520;27.448;2023-02-28T09:31:16;20.77;;;11.60;;
8574;SDS011;4325;42.520;27.448;2023-02-28T09:33:48;17.33;;;11.23;;
8574;SDS011;4325;42.520;27.448;2023-02-28T09:36:16;17.90;;;10.93;;
8574;SDS011;4325;42.520;27.448;2023-02-28T09:38:43;13.43;;;10.47;;
8574;SDS011;4325;42.520;27.448;2023-02-28T09:41:13;14.90;;;10.50;;
8574;SDS011;4325;42.520;27.448;2023-02-28T09:43:44;12.37;;;9.80;;
8574;SDS011;4325;42.520;27.448;2023-02-28T09:46:17;14.13;;;10.60;;
8574;SDS011;4325;42.520;27.448;2023-02-28T09:48:57;21.20;;;10.17;;
8574;SDS011;4325;42.520;27.448;2023-02-28T09:51:29;13.13;;;10.57;;
8574;SDS011;4325;42.520;27.448;2023-02-28T09:54:02;15.30;;;10.77;;
8574;SDS011;4325;42.520;27.448;2023-02-28T09:56:33;13.33;;;9.07;;
8574;SDS011;4325;42.520;27.448;2023-02-28T09:59:06;13.43;;;8.67;;
8574;SDS011;4325;42.520;27.448;2023-02-28T10:01:43;13.00;;;9.00;;
8574;SDS011;4325;42.520;27.448;2023-02-28T10:04:26;10.87;;;7.93;;
8574;SDS011;4325;42.520;27.448;2023-02-28T10:07:10;12.03;;;6.77;;
8574;SDS011;4325;42.520;27.448;2023-02-28T10:09:49;8.37;;;5.70;;
8574;SDS011;4325;42.520;27.448;2023-02-28T10:12:19;8.43;;;5.83;;
8574;SDS011;4325;42.520;27.448;2023-02-28T10:14:48;9.37;;;6.23;;
8574;SDS011;4325;42.520;27.448;2023-02-28T10:17:19;7.43;;;6.30;;
8574;SDS011;4325;42.520;27.448;2023-02-28T10:19:54;7.97;;;6.37;;
8574;SDS011;4325;42.520;27.448;2023-02-28T10:22:27;9.63;;;6.93;;
8574;SDS011;4325;42.520;27.448;2023-02-28T10:24:59;11.50;;;6.40;;
8574;SDS011;4325;42.520;27.448;2023-02-28T10:27:29;8.87;;;6.40;;
8574;SDS011;4325;42.520;27.448;2023-02-28T10:29:58;11.87;;;6.53;;
8574;SDS011;4325;42.520;27.448;2023-02-28T10:32:27;11.50;;;7.13;;
8574;SDS011;4325;42.520;27.448;2023-02-28T10:34:59;10.47;;;7.40;;
8574;SDS011;4325;42.520;27.448;2023-02-28T10:37:30;11.40;;;6.70;;
8574;SDS011;4325;42.520;27.448;2023-02-28T10:39:57;10.50;;;6.53;;
8574;SDS011;4325;42.520;27.448;2023-02-28T10:42:25;9.60;;;7.17;;
8574;SDS011;4325;42.520;27.448;2023-02-28T10:47:40;7.83;;;6.27;;
8574;SDS011;4325;42.520;27.448;2023-02-28T10:50:29;8.27;;;6.63;;
8574;SDS011;4325;42.520;27.448;2023-02-28T10:53:17;7.53;;;5.97;;
8574;SDS011;4325;42.520;27.448;2023-02-28T10:55:58;10.23;;;6.33;;
8574;SDS011;4325;42.520;27.448;2023-02-28T10:58:26;10.47;;;7.20;;
8574;SDS011;4325;42.520;27.448;2023-02-28T11:00:55;9.17;;;6.53;;
8574;SDS011;4325;42.520;27.448;2023-02-28T11:03:23;12.33;;;6.70;;
8574;SDS011;4325;42.520;27.448;2023-02-28T11:06:05;12.00;;;6.50;;
8574;SDS011;4325;42.520;27.448;2023-02-28T11:08:34;10.17;;;7.60;;
8574;SDS011;4325;42.520;27.448;2023-02-28T11:11:11;12.53;;;7.30;;
8574;SDS011;4325;42.520;27.448;2023-02-28T11:13:38;9.37;;;7.30;;
8574;SDS011;4325;42.520;27.448;2023-02-28T11:16:07;8.70;;;6.70;;
8574;SDS011;4325;42.520;27.448;2023-02-28T11:18:37;15.40;;;6.80;;
8574;SDS011;4325;42.520;27.448;2023-02-28T11:21:08;9.37;;;6.97;;
8574;SDS011;4325;42.520;27.448;2023-02-28T11:23:41;14.50;;;7.13;;
8574;SDS011;4325;42.520;27.448;2023-02-28T11:26:09;9.07;;;6.70;;
8574;SDS011;4325;42.520;27.448;2023-02-28T11:28:37;11.20;;;6.60;;
8574;SDS011;4325;42.520;27.448;2023-02-28T11:31:14;11.67;;;7.43;;
8574;SDS011;4325;42.520;27.448;2023-02-28T11:33:44;12.03;;;6.63;;
8574;SDS011;4325;42.520;27.448;2023-02-28T11:36:18;13.03;;;7.23;;
8574;SDS011;4325;42.520;27.448;2023-02-28T11:38:50;9.73;;;6.47;;
8574;SDS011;4325;42.520;27.448;2023-02-28T11:41:30;9.33;;;6.40;;
8574;SDS011;4325;42.520;27.448;2023-02-28T11:44:17;12.57;;;6.50;;
8574;SDS011;4325;42.520;27.448;2023-02-28T11:46:52;10.30;;;6.73;;
8574;SDS011;4325;42.520;27.448;2023-02-28T11:49:30;13.03;;;7.30;;
8574;SDS011;4325;42.520;27.448;2023-02-28T11:52:05;10.80;;;7.27;;
8574;SDS011;4325;42.520;27.448;2023-02-28T11:54:47;10.50;;;6.73;;
8574;SDS011;4325;42.520;27.448;2023-02-28T11:57:31;13.33;;;6.57;;
8574;SDS011;4325;42.520;27.448;2023-02-28T12:00:13;10.37;;;8.00;;
8574;SDS011;4325;42.520;27.448;2023-02-28T12:02:50;10.57;;;7.10;;
8574;SDS011;4325;42.520;27.448;2023-02-28T12:05:26;9.47;;;7.30;;
8574;SDS011;4325;42.520;27.448;2023-02-28T12:08:04;11.00;;;6.70;;
8574;SDS011;4325;42.520;27.448;2023-02-28T12:10:49;8.43;;;6.67;;
8574;SDS011;4325;42.520;27.448;2023-02-28T12:13:29;9.87;;;6.83;;
8574;SDS011;4325;42.520;27.448;2023-02-28T12:16:17;12.23;;;6.67;;
8574;SDS011;4325;42.520;27.448;2023-02-28T12:19:05;10.03;;;6.40;;
8574;SDS011;4325;42.520;27.448;2023-02-28T12:21:46;15.23;;;7.50;;
8574;SDS011;4325;42.520;27.448;2023-02-28T12:27:20;9.87;;;6.73;;
8574;SDS011;4325;42.520;27.448;2023-02-28T12:29:52;9.40;;;6.70;;
8574;SDS011;4325;42.520;27.448;2023-02-28T12:32:23;12.03;;;7.10;;
8574;SDS011;4325;42.520;27.448;2023-02-28T12:34:55;12.33;;;7.17;;
8574;SDS011;4325;42.520;27.448;2023-02-28T12:37:28;8.23;;;6.23;;
8574;SDS011;4325;42.520;27.448;2023-02-28T12:40:03;10.23;;;6.80;;
8574;SDS011;4325;42.520;27.448;2023-02-28T12:42:35;10.10;;;6.57;;
8574;SDS011;4325;42.520;27.448;2023-02-28T12:45:07;10.97;;;6.40;;
8574;SDS011;4325;42.520;27.448;2023-02-28T12:47:40;9.87;;;6.60;;
8574;SDS011;4325;42.520;27.448;2023-02-28T12:50:10;8.40;;;6.23;;
8574;SDS011;4325;42.520;27.448;2023-02-28T12:52:40;11.37;;;6.47;;
8574;SDS011;4325;42.520;27.448;2023-02-28T12:55:15;11.07;;;6.47;;
8574;SDS011;4325;42.520;27.448;2023-02-28T12:57:50;13.20;;;7.67;;
8574;SDS011;4325;42.520;27.448;2023-02-28T13:00:26;8.60;;;6.47;;
8574;SDS011;4325;42.520;27.448;2023-02-28T13:03:08;8.00;;;6.30;;
8574;SDS011;4325;42.520;27.448;2023-02-28T13:06:04;14.30;;;6.70;;
8574;SDS011;4325;42.520;27.448;2023-02-28T13:11:39;10.93;;;6.13;;
8574;SDS011;4325;42.520;27.448;2023-02-28T13:14:20;11.77;;;6.23;;
8574;SDS011;4325;42.520;27.448;2023-02-28T13:16:58;8.90;;;5.83;;
8574;SDS011;4325;42.520;27.448;2023-02-28T13:19:28;8.57;;;6.83;;
8574;SDS011;4325;42.520;27.448;2023-02-28T13:21:57;9.53;;;6.43;;
8574;SDS011;4325;42.520;27.448;2023-02-28T13:24:39;9.73;;;5.80;;
8574;SDS011;4325;42.520;27.448;2023-02-28T13:33:19;9.80;;;6.10;;
8574;SDS011;4325;42.520;27.448;2023-02-28T13:35:50;9.20;;;6.20;;
8574;SDS011;4325;42.520;27.448;2023-02-28T13:38:34;11.33;;;7.20;;
8574;SDS011;4325;42.520;27.448;2023-02-28T13:44:10;9.87;;;6.40;;
8574;SDS011;4325;42.520;27.448;2023-02-28T13:49:37;11.33;;;7.13;;
8574;SDS011;4325;42.520;27.448;2023-02-28T13:52:07;12.87;;;7.10;;
8574;SDS011;4325;42.520;27.448;2023-02-28T13:54:44;10.13;;;6.43;;
8574;SDS011;4325;42.520;27.448;2023-02-28T13:57:23;11.20;;;6.67;;
8574;SDS011;4325;42.520;27.448;2023-02-28T14:00:05;11.93;;;7.30;;
8574;SDS011;4325;42.520;27.448;2023-02-28T14:02:51;10.53;;;7.23;;
8574;SDS011;4325;42.520;27.448;2023-02-28T14:05:34;16.63;;;7.97;;
8574;SDS011;4325;42.520;27.448;2023-02-28T14:08:04;10.60;;;6.87;;
8574;SDS011;4325;42.520;27.448;2023-02-28T14:10:41;14.67;;;7.50;;
8574;SDS011;4325;42.520;27.448;2023-02-28T14:13:17;10.90;;;6.83;;
8574;SDS011;4325;42.520;27.448;2023-02-28T14:16:09;11.33;;;7.37;;
8574;SDS011;4325;42.520;27.448;2023-02-28T14:18:40;14.73;;;7.03;;
8574;SDS011;4325;42.520;27.448;2023-02-28T14:21:10;16.43;;;7.30;;
8574;SDS011;4325;42.520;27.448;2023-02-28T14:24:00;8.83;;;6.60;;
8574;SDS011;4325;42.520;27.448;2023-02-28T14:27:03;11.83;;;7.23;;
8574;SDS011;4325;42.520;27.448;2023-02-28T14:29:44;16.67;;;7.87;;
8574;SDS011;4325;42.520;27.448;2023-02-28T14:32:48;12.47;;;8.10;;
8574;SDS011;4325;42.520;27.448;2023-02-28T14:35:35;9.07;;;7.00;;
8574;SDS011;4325;42.520;27.448;2023-02-28T14:38:13;13.27;;;7.47;;
8574;SDS011;4325;42.520;27.448;2023-02-28T14:40:43;11.83;;;7.10;;
8574;SDS011;4325;42.520;27.448;2023-02-28T14:43:18;13.90;;;7.63;;
8574;SDS011;4325;42.520;27.448;2023-02-28T14:45:50;9.30;;;7.30;;
8574;SDS011;4325;42.520;27.448;2023-02-28T14:48:20;9.47;;;6.83;;
8574;SDS011;4325;42.520;27.448;2023-02-28T14:50:49;10.47;;;6.97;;
8574;SDS011;4325;42.520;27.448;2023-02-28T14:53:18;11.37;;;7.53;;
8574;SDS011;4325;42.520;27.448;2023-02-28T14:55:48;12.07;;;7.57;;
8574;SDS011;4325;42.520;27.448;2023-02-28T14:58:21;20.43;;;7.20;;
8574;SDS011;4325;42.520;27.448;2023-02-28T15:00:52;12.70;;;6.63;;
8574;SDS011;4325;42.520;27.448;2023-02-28T15:03:22;12.53;;;7.10;;
8574;SDS011;4325;42.520;27.448;2023-02-28T15:05:54;10.70;;;6.77;;
8574;SDS011;4325;42.520;27.448;2023-02-28T15:08:22;10.97;;;6.47;;
8574;SDS011;4325;42.520;27.448;2023-02-28T15:10:51;12.47;;;7.30;;
8574;SDS011;4325;42.520;27.448;2023-02-28T15:13:20;12.17;;;7.57;;
8574;SDS011;4325;42.520;27.448;2023-02-28T15:15:48;14.10;;;7.60;;
8574;SDS011;4325;42.520;27.448;2023-02-28T15:18:23;15.07;;;7.83;;
8574;SDS011;4325;42.520;27.448;2023-02-28T15:20:56;11.57;;;7.53;;
8574;SDS011;4325;42.520;27.448;2023-02-28T15:23:27;11.50;;;7.87;;
8574;SDS011;4325;42.520;27.448;2023-02-28T15:25:54;13.20;;;7.20;;
8574;SDS011;4325;42.520;27.448;2023-02-28T15:28:22;10.67;;;6.97;;
8574;SDS011;4325;42.520;27.448;2023-02-28T15:30:51;15.87;;;7.03;;
8574;SDS011;4325;42.520;27.448;2023-02-28T15:33:22;10.30;;;7.17;;
8574;SDS011;4325;42.520;27.448;2023-02-28T15:35:50;14.30;;;7.17;;
8574;SDS011;4325;42.520;27.448;2023-02-28T15:38:18;13.60;;;6.67;;